Time;durP1;ratioP1;P1;durP2;ratioP2;P2;SDS_P1;SDS_P2;PMS_P1;PMS_P2;Temp;Humidity;BMP_temperature;BMP_pressure;BME280_temperature;BME280_humidity;BME280_pressure;Samples;Min_cycle;Max_cycle;Signal;HPM_P1;HPM_P2
2024/04/14 00:00:35;;;;;;;8.20;7.60;;;14.60;99.90;;;;;;6809974;26;20484;-58
2024/04/14 00:03:45;;;;;;;9.10;8.00;;;14.60;99.90;;;;;;6804103;26;20472;-58
2024/04/14 00:06:57;;;;;;;8.77;7.97;;;14.60;99.90;;;;;;6810961;26;20958;-59
2024/04/14 00:10:04;;;;;;;8.10;7.40;;;14.60;99.90;;;;;;6810732;26;20468;-59
2024/04/14 00:13:26;;;;;;;7.70;7.10;;;14.50;99.90;;;;;;6810066;26;20519;-58
2024/04/14 00:16:30;;;;;;;8.07;7.40;;;14.50;99.90;;;;;;6812170;26;20460;-58
2024/04/14 00:19:48;;;;;;;8.00;7.30;;;14.50;99.90;;;;;;6812350;26;20468;-58
2024/04/14 00:22:52;;;;;;;10.40;7.60;;;14.40;99.90;;;;;;6811059;26;20464;-58
2024/04/14 00:26:00;;;;;;;8.20;7.40;;;14.40;99.90;;;;;;6810655;26;20831;-58
2024/04/14 00:29:23;;;;;;;8.00;7.40;;;14.40;99.90;;;;;;6811355;26;20662;-59
2024/04/14 00:32:27;;;;;;;7.40;6.80;;;14.30;99.90;;;;;;6804259;26;20480;-58
2024/04/14 00:35:47;;;;;;;8.13;7.43;;;14.30;99.90;;;;;;6810748;26;20521;-59
2024/04/14 00:38:56;;;;;;;9.73;7.80;;;14.20;99.90;;;;;;6804473;26;20480;-59
2024/04/14 00:42:04;;;;;;;8.07;6.93;;;14.20;99.90;;;;;;6811677;26;20512;-59
2024/04/14 00:45:20;;;;;;;8.00;7.30;;;14.20;99.90;;;;;;6811277;26;20464;-58
2024/04/14 00:48:25;;;;;;;7.23;6.03;;;14.10;99.90;;;;;;6811819;26;20464;-58
2024/04/14 00:51:54;;;;;;;8.47;7.63;;;14.00;99.90;;;;;;6767452;26;20506;-59
2024/04/14 00:54:59;;;;;;;7.90;7.20;;;14.00;99.90;;;;;;6803911;26;20547;-59
2024/04/14 00:58:21;;;;;;;8.13;7.43;;;13.90;99.90;;;;;;6811920;26;20479;-58
2024/04/14 01:01:44;;;;;;;7.53;6.83;;;13.90;99.90;;;;;;6812242;26;20472;-59
2024/04/14 01:04:57;;;;;;;7.73;7.03;;;13.80;99.90;;;;;;6810814;26;20582;-58
2024/04/14 01:08:10;;;;;;;8.23;7.43;;;13.80;99.90;;;;;;6811198;26;21196;-58
2024/04/14 01:11:19;;;;;;;7.57;6.83;;;13.70;99.90;;;;;;6811722;26;20847;-58
2024/04/14 01:14:23;;;;;;;8.50;7.77;;;13.60;99.90;;;;;;6812552;26;20468;-58
2024/04/14 01:17:45;;;;;;;8.93;7.83;;;13.60;99.90;;;;;;6812784;26;20456;-58
2024/04/14 01:20:51;;;;;;;8.13;7.43;;;13.60;99.90;;;;;;6810297;26;20460;-59
2024/04/14 01:24:04;;;;;;;9.33;8.53;;;13.60;99.90;;;;;;6809963;26;20480;-58
2024/04/14 01:27:13;;;;;;;9.37;8.57;;;13.50;99.90;;;;;;6813846;26;20468;-58
2024/04/14 01:30:23;;;;;;;7.73;7.13;;;13.50;99.90;;;;;;6811501;26;20476;-59
2024/04/14 01:33:30;;;;;;;9.80;8.80;;;13.40;99.90;;;;;;6794602;26;20471;-58
2024/04/14 01:36:43;;;;;;;9.80;8.80;;;13.40;99.90;;;;;;6813492;26;20563;-58
2024/04/14 01:39:47;;;;;;;8.20;7.40;;;13.30;99.90;;;;;;6799959;26;20460;-58
2024/04/14 01:43:10;;;;;;;9.57;7.53;;;13.30;99.90;;;;;;6814901;26;20558;-60
2024/04/14 01:46:14;;;;;;;8.57;7.83;;;13.20;99.90;;;;;;6814651;26;20528;-59
2024/04/14 01:49:22;;;;;;;8.27;7.57;;;13.30;99.90;;;;;;6804154;26;21010;-59
2024/04/14 01:52:31;;;;;;;9.77;7.30;;;13.10;99.90;;;;;;6811382;26;21221;-59
2024/04/14 01:55:42;;;;;;;8.60;7.80;;;13.10;99.90;;;;;;6808762;26;21084;-59
2024/04/14 01:58:55;;;;;;;7.60;6.90;;;13.00;99.90;;;;;;6814748;26;20578;-59
2024/04/14 02:02:00;;;;;;;8.07;7.37;;;12.90;99.90;;;;;;6814183;26;20578;-59
2024/04/14 02:05:10;;;;;;;10.40;9.40;;;12.90;99.90;;;;;;6815569;26;20529;-59
2024/04/14 02:08:14;;;;;;;7.73;7.03;;;12.80;99.90;;;;;;6815938;26;21013;-60
2024/04/14 02:11:26;;;;;;;8.50;7.70;;;12.70;99.90;;;;;;6815380;26;20467;-59
2024/04/14 02:14:38;;;;;;;8.53;7.80;;;12.60;99.90;;;;;;6793492;26;20521;-59
2024/04/14 02:17:53;;;;;;;8.60;7.83;;;12.60;99.90;;;;;;6803826;26;20479;-59
2024/04/14 02:20:59;;;;;;;8.93;8.07;;;12.50;99.90;;;;;;6812437;26;20460;-60
2024/04/14 02:24:14;;;;;;;8.47;7.47;;;12.40;99.90;;;;;;6801804;26;21068;-59
2024/04/14 02:27:19;;;;;;;9.10;8.30;;;12.30;99.90;;;;;;6808846;26;20472;-59
2024/04/14 02:30:34;;;;;;;8.90;8.00;;;12.30;99.90;;;;;;6806101;26;20528;-59
2024/04/14 02:33:41;;;;;;;9.70;8.80;;;12.20;99.90;;;;;;6811585;26;20480;-59
2024/04/14 02:36:51;;;;;;;8.93;8.13;;;12.10;99.90;;;;;;6802055;26;20524;-59
2024/04/14 02:39:54;;;;;;;8.50;7.80;;;12.10;99.90;;;;;;6813842;26;20536;-59
2024/04/14 02:43:01;;;;;;;9.73;8.50;;;12.00;99.90;;;;;;6799770;26;20475;-60
2024/04/14 02:46:08;;;;;;;8.67;7.97;;;12.00;99.90;;;;;;6805263;26;20537;-59
2024/04/14 02:49:18;;;;;;;9.20;8.40;;;11.90;99.90;;;;;;6816091;26;20869;-59
2024/04/14 02:52:23;;;;;;;8.50;7.70;;;12.00;99.90;;;;;;6802765;26;20523;-59
2024/04/14 02:55:33;;;;;;;8.80;8.00;;;11.80;99.90;;;;;;6800119;26;21252;-59
2024/04/14 02:58:47;;;;;;;9.30;8.40;;;11.80;99.90;;;;;;6812898;26;20532;-59
2024/04/14 03:01:54;;;;;;;8.77;7.97;;;11.80;99.90;;;;;;6806882;26;20464;-59
2024/04/14 03:05:09;;;;;;;9.20;8.37;;;11.80;99.90;;;;;;6813612;26;20510;-59
2024/04/14 03:08:13;;;;;;;8.17;7.47;;;11.70;99.90;;;;;;6812158;26;20488;-58
2024/04/14 03:11:21;;;;;;;9.10;8.30;;;11.70;99.90;;;;;;6812182;26;20544;-59
2024/04/14 03:14:39;;;;;;;8.30;7.50;;;11.60;99.90;;;;;;6811684;26;20934;-59
2024/04/14 03:17:45;;;;;;;9.23;8.23;;;11.60;99.90;;;;;;6812083;26;20536;-58
2024/04/14 03:20:59;;;;;;;8.70;7.93;;;11.50;99.90;;;;;;6807760;26;20981;-59
2024/04/14 03:24:05;;;;;;;9.83;8.87;;;11.40;99.90;;;;;;6795674;26;20464;-59
2024/04/14 03:27:13;;;;;;;8.90;8.10;;;11.40;99.90;;;;;;6807538;26;20468;-59
2024/04/14 03:30:27;;;;;;;8.30;7.60;;;11.30;99.90;;;;;;6811422;26;20513;-59
2024/04/14 03:33:49;;;;;;;8.93;7.83;;;11.30;99.90;;;;;;6803476;26;20472;-60
2024/04/14 03:36:58;;;;;;;9.17;8.27;;;11.20;99.90;;;;;;6810577;26;20518;-59
2024/04/14 03:40:05;;;;;;;10.53;8.67;;;11.20;99.90;;;;;;6811778;26;20472;-59
2024/04/14 03:43:17;;;;;;;8.40;7.70;;;11.10;99.90;;;;;;6811921;26;20527;-59
2024/04/14 03:46:25;;;;;;;9.80;8.87;;;11.10;99.90;;;;;;6805600;26;20524;-59
2024/04/14 03:49:38;;;;;;;8.97;8.17;;;11.10;99.90;;;;;;6811296;26;20471;-59
2024/04/14 03:52:44;;;;;;;9.97;8.93;;;11.00;99.90;;;;;;6808032;26;20562;-59
2024/04/14 03:55:56;;;;;;;10.73;9.60;;;11.00;99.90;;;;;;6813795;26;20570;-59
2024/04/14 03:58:59;;;;;;;7.97;7.20;;;11.00;99.90;;;;;;6814156;26;20904;-59
2024/04/14 04:02:13;;;;;;;9.83;8.83;;;11.00;99.90;;;;;;6810064;26;20466;-58
2024/04/14 04:05:25;;;;;;;8.20;7.30;;;11.00;99.90;;;;;;6812166;26;20476;-59
2024/04/14 04:08:40;;;;;;;10.93;9.83;;;10.90;99.90;;;;;;6811929;26;20460;-60
2024/04/14 04:11:45;;;;;;;8.87;7.77;;;11.00;99.90;;;;;;6796333;26;20570;-59
2024/04/14 04:14:54;;;;;;;8.90;8.10;;;11.00;99.90;;;;;;6764400;26;20764;-59
2024/04/14 04:17:59;;;;;;;12.20;8.20;;;11.00;99.90;;;;;;6796963;26;20864;-60
2024/04/14 04:21:22;;;;;;;9.70;8.80;;;11.00;99.90;;;;;;6813481;26;20483;-60
2024/04/14 04:24:27;;;;;;;10.07;9.03;;;11.10;99.90;;;;;;6810650;26;20469;-59
2024/04/14 04:27:42;;;;;;;9.20;8.30;;;11.20;99.90;;;;;;6810571;26;20464;-60
2024/04/14 04:30:57;;;;;;;9.37;8.60;;;11.30;99.90;;;;;;6810298;26;20965;-59
2024/04/14 04:34:01;;;;;;;8.90;8.10;;;11.70;99.90;;;;;;6810964;26;20592;-59
2024/04/14 04:37:14;;;;;;;9.43;7.90;;;12.30;99.90;;;;;;6811239;26;20571;-59
2024/04/14 04:40:22;;;;;;;7.20;6.60;;;13.00;99.90;;;;;;6811307;26;20472;-59
2024/04/14 04:43:29;;;;;;;8.43;7.53;;;13.80;99.90;;;;;;6811631;26;20957;-60
2024/04/14 04:46:43;;;;;;;6.93;6.33;;;14.60;99.90;;;;;;6809610;26;20511;-59
2024/04/14 04:49:48;;;;;;;6.67;6.10;;;15.40;99.90;;;;;;6812928;26;20460;-60
2024/04/14 04:53:19;;;;;;;7.73;6.90;;;16.50;99.90;;;;;;6813549;26;20467;-59
2024/04/14 04:56:24;;;;;;;7.10;5.57;;;17.80;96.50;;;;;;6811997;26;20464;-59
2024/04/14 04:59:33;;;;;;;6.87;5.80;;;18.80;93.10;;;;;;6811408;26;20346;-60
2024/04/14 05:02:39;;;;;;;6.20;5.73;;;19.80;90.30;;;;;;6812444;26;20231;-59
2024/04/14 05:05:53;;;;;;;6.97;6.10;;;20.70;84.70;;;;;;6813520;26;20239;-60
2024/04/14 05:09:11;;;;;;;6.60;6.10;;;21.60;78.90;;;;;;6813305;26;20331;-60
2024/04/14 05:12:26;;;;;;;7.13;6.60;;;22.30;73.10;;;;;;6813705;26;20691;-60
2024/04/14 05:15:29;;;;;;;7.27;6.57;;;23.10;68.50;;;;;;6770027;26;20836;-60
2024/04/14 05:18:36;;;;;;;7.17;6.53;;;23.70;64.10;;;;;;6768568;26;20522;-59
2024/04/14 05:21:44;;;;;;;8.30;6.30;;;24.40;59.90;;;;;;6807275;26;20598;-60
2024/04/14 05:25:09;;;;;;;6.50;6.00;;;25.20;57.50;;;;;;6813526;26;20793;-59
2024/04/14 05:28:16;;;;;;;6.50;6.00;;;25.90;55.00;;;;;;6782992;26;20265;-59
2024/04/14 05:31:25;;;;;;;6.23;5.73;;;26.40;52.10;;;;;;6813533;26;20226;-60
2024/04/14 05:34:34;;;;;;;9.23;5.90;;;26.60;50.50;;;;;;6813297;26;20235;-59
2024/04/14 05:37:47;;;;;;;7.70;5.70;;;27.20;48.90;;;;;;6813004;26;20276;-59
2024/04/14 05:41:10;;;;;;;8.83;6.33;;;27.90;46.90;;;;;;6813853;26;20226;-61
2024/04/14 05:44:15;;;;;;;9.77;6.37;;;29.00;44.70;;;;;;6813550;26;20560;-60
2024/04/14 05:47:25;;;;;;;6.07;5.57;;;29.80;42.20;;;;;;6813275;26;20226;-60
2024/04/14 05:50:36;;;;;;;7.10;5.47;;;30.90;39.70;;;;;;6813827;26;20222;-61
2024/04/14 05:53:44;;;;;;;5.57;5.07;;;32.00;37.20;;;;;;6812988;26;20227;-60
2024/04/14 05:57:07;;;;;;;5.47;5.07;;;33.10;34.80;;;;;;6813270;26;20285;-60
2024/04/14 06:00:11;;;;;;;5.43;5.03;;;34.00;32.30;;;;;;6813296;26;20227;-61
2024/04/14 06:03:26;;;;;;;5.55;5.03;;;34.60;31.10;;;;;;6812807;26;20515;-61
2024/04/14 06:06:31;;;;;;;5.07;4.20;;;35.00;29.80;;;;;;6811905;26;20285;-60
2024/04/14 06:09:43;;;;;;;5.60;5.07;;;36.10;28.90;;;;;;6813332;26;20280;-60
2024/04/14 06:12:53;;;;;;;5.70;5.20;;;37.00;27.70;;;;;;6812274;26;20226;-60
2024/04/14 06:16:07;;;;;;;4.90;4.43;;;38.00;26.40;;;;;;6812808;26;20314;-61
2024/04/14 06:19:17;;;;;;;5.20;4.80;;;38.90;25.10;;;;;;6808703;26;20346;-61
2024/04/14 06:22:21;;;;;;;5.40;5.00;;;39.90;24.00;;;;;;6813149;26;20531;-61
2024/04/14 06:25:35;;;;;;;4.78;4.32;;;40.80;22.90;;;;;;6812898;26;20238;-60
2024/04/14 06:28:43;;;;;;;5.10;4.60;;;41.70;21.70;;;;;;6813683;26;20228;-60
2024/04/14 06:31:53;;;;;;;5.47;4.95;;;42.50;21.00;;;;;;6812794;26;20541;-60
2024/04/14 06:34:56;;;;;;;5.05;4.55;;;43.10;20.20;;;;;;6813494;26;20719;-61
2024/04/14 06:38:06;;;;;;;4.65;4.25;;;43.10;19.70;;;;;;6815501;26;20720;-60
2024/04/14 06:41:23;;;;;;;4.75;4.07;;;43.20;19.50;;;;;;6813266;26;20388;-61
2024/04/14 06:44:52;;;;;;;4.63;4.18;;;43.70;19.30;;;;;;6812484;26;20273;-62
2024/04/14 06:47:57;;;;;;;4.18;3.88;;;44.30;18.20;;;;;;6812868;26;20577;-62
2024/04/14 06:51:04;;;;;;;3.83;3.53;;;45.00;17.40;;;;;;6807330;26;20695;-61
2024/04/14 06:54:08;;;;;;;4.88;3.88;;;45.70;16.60;;;;;;6812978;26;20269;-61
2024/04/14 06:57:23;;;;;;;4.40;4.00;;;46.40;16.10;;;;;;6814081;26;20222;-60
2024/04/14 07:00:33;;;;;;;5.45;3.58;;;47.10;15.60;;;;;;6818990;26;20893;-60
2024/04/14 07:03:49;;;;;;;4.13;3.67;;;47.80;14.90;;;;;;6822242;26;20222;-61
2024/04/14 07:06:54;;;;;;;4.22;3.55;;;48.40;14.50;;;;;;6813525;26;20237;-61
2024/04/14 07:10:08;;;;;;;4.53;3.25;;;49.30;14.00;;;;;;6812139;26;20293;-61
2024/04/14 07:13:21;;;;;;;4.22;3.85;;;50.10;13.50;;;;;;6812756;26;20279;-61
2024/04/14 07:16:45;;;;;;;3.83;3.38;;;50.70;13.10;;;;;;6811774;26;20236;-60
2024/04/14 07:19:51;;;;;;;4.80;3.50;;;51.30;12.50;;;;;;6807884;26;20246;-61
2024/04/14 07:23:00;;;;;;;4.30;3.55;;;52.10;12.00;;;;;;6811205;26;20551;-60
2024/04/14 07:26:14;;;;;;;2.92;2.63;;;52.30;11.60;;;;;;6812878;26;20230;-61
2024/04/14 07:29:16;;;;;;;5.45;3.15;;;52.30;11.00;;;;;;6812195;26;20238;-61
2024/04/14 07:32:31;;;;;;;3.25;2.92;;;52.80;10.50;;;;;;6811659;26;20276;-61
2024/04/14 07:35:35;;;;;;;5.38;3.90;;;53.20;10.30;;;;;;6811591;26;20239;-61
2024/04/14 07:38:42;;;;;;;3.30;3.08;;;53.80;10.10;;;;;;6811224;26;20687;-61
2024/04/14 07:41:45;;;;;;;3.58;3.38;;;54.40;9.70;;;;;;6810991;26;20232;-61
2024/04/14 07:44:53;;;;;;;2.88;2.67;;;55.10;9.30;;;;;;6810967;26;20240;-61
2024/04/14 07:48:17;;;;;;;3.85;2.80;;;55.50;8.70;;;;;;6812021;26;20449;-61
2024/04/14 07:51:22;;;;;;;5.57;2.85;;;55.60;8.20;;;;;;6812581;26;20641;-60
2024/04/14 07:54:35;;;;;;;3.70;3.40;;;55.80;7.90;;;;;;6813196;26;20345;-60
2024/04/14 07:57:46;;;;;;;4.47;3.17;;;54.90;8.40;;;;;;6813192;26;20219;-60
2024/04/14 08:00:59;;;;;;;3.63;3.30;;;54.20;8.40;;;;;;6813303;26;20727;-62
2024/04/14 08:04:17;;;;;;;5.03;3.20;;;53.80;8.50;;;;;;6808318;26;20276;-62
2024/04/14 08:07:31;;;;;;;3.22;2.92;;;54.30;8.30;;;;;;6811864;26;20268;-61
2024/04/14 08:10:44;;;;;;;2.60;2.40;;;54.60;8.10;;;;;;6811816;26;20290;-62
2024/04/14 08:17:17;;;;;;;3.70;3.40;;;53.40;9.00;;;;;;6765765;26;20230;-61
2024/04/14 08:20:37;;;;;;;5.50;3.88;;;53.40;8.90;;;;;;6805171;26;20249;-61
2024/04/14 08:23:44;;;;;;;4.15;3.78;;;54.80;8.60;;;;;;6812942;26;20389;-60
2024/04/14 08:26:53;;;;;;;4.28;3.88;;;54.70;8.80;;;;;;6813709;26;20234;-62
2024/04/14 08:30:07;;;;;;;4.85;4.35;;;55.60;8.60;;;;;;6803452;26;20226;-61
2024/04/14 08:33:12;;;;;;;4.72;4.30;;;56.00;8.30;;;;;;6810371;26;20222;-62
2024/04/14 08:36:35;;;;;;;5.00;4.70;;;55.20;8.30;;;;;;6812857;26;20230;-61
2024/04/14 08:39:40;;;;;;;5.07;4.70;;;54.60;8.80;;;;;;6815579;26;20238;-61
2024/04/14 08:42:51;;;;;;;4.07;3.78;;;55.30;8.50;;;;;;6815103;26;20545;-62
2024/04/14 08:45:57;;;;;;;4.53;4.22;;;55.20;8.10;;;;;;6814186;26;20242;-60
2024/04/14 08:49:09;;;;;;;4.68;4.38;;;54.30;8.80;;;;;;6814928;26;20775;-61
2024/04/14 08:52:22;;;;;;;5.35;4.95;;;54.50;9.00;;;;;;6815232;26;20258;-61
2024/04/14 08:55:29;;;;;;;5.40;5.00;;;55.80;8.90;;;;;;6811353;26;20285;-61
2024/04/14 08:58:42;;;;;;;4.85;4.45;;;55.10;9.50;;;;;;6805865;26;20283;-62
2024/04/14 09:01:55;;;;;;;4.78;4.38;;;51.80;10.40;;;;;;6809377;26;20812;-61
2024/04/14 09:05:11;;;;;;;5.18;4.88;;;52.50;10.50;;;;;;6807924;26;20686;-60
2024/04/14 09:08:32;;;;;;;5.30;4.90;;;52.90;10.30;;;;;;6814120;26;20819;-61
2024/04/14 09:11:42;;;;;;;5.70;5.20;;;52.10;10.60;;;;;;6815756;26;20322;-61
2024/04/14 09:14:50;;;;;;;5.55;4.95;;;50.80;11.90;;;;;;6816288;26;20234;-63
2024/04/14 09:18:07;;;;;;;5.85;5.30;;;52.50;10.80;;;;;;6814617;26;20433;-62
2024/04/14 09:21:11;;;;;;;4.93;4.57;;;51.40;11.30;;;;;;6813770;26;20277;-61
2024/04/14 09:24:26;;;;;;;5.22;4.88;;;51.10;11.30;;;;;;6806458;26;20288;-61
2024/04/14 09:27:35;;;;;;;5.43;4.90;;;51.20;11.40;;;;;;6813168;26;20285;-61
2024/04/14 09:30:41;;;;;;;5.30;4.90;;;51.60;11.00;;;;;;6812822;26;20306;-60
2024/04/14 09:33:47;;;;;;;6.40;4.95;;;51.10;11.20;;;;;;6813120;26;20542;-61
2024/04/14 09:37:03;;;;;;;5.60;4.90;;;51.30;11.30;;;;;;6809085;26;20718;-60
2024/04/14 09:40:13;;;;;;;5.32;4.82;;;51.30;11.20;;;;;;6768204;26;20287;-62
2024/04/14 09:43:34;;;;;;;5.43;4.93;;;53.00;10.40;;;;;;6767469;26;20748;-60
2024/04/14 09:46:49;;;;;;;5.40;5.10;;;54.20;10.50;;;;;;6774296;26;20259;-61
2024/04/14 09:49:58;;;;;;;5.28;4.88;;;52.50;11.00;;;;;;6766670;26;20641;-61
2024/04/14 09:53:24;;;;;;;5.53;5.03;;;52.30;11.10;;;;;;6767106;26;20241;-61
2024/04/14 09:56:47;;;;;;;4.90;4.47;;;52.90;10.50;;;;;;6764076;26;20296;-61
2024/04/14 09:59:52;;;;;;;5.78;5.30;;;53.50;10.50;;;;;;6767563;26;20235;-61
2024/04/14 10:03:06;;;;;;;5.75;5.28;;;52.30;11.00;;;;;;6755507;26;20252;-61
2024/04/14 10:06:12;;;;;;;7.63;5.38;;;52.40;11.40;;;;;;6759513;26;20247;-60
2024/04/14 10:09:26;;;;;;;4.45;4.15;;;53.60;11.10;;;;;;6770446;26;20240;-62
2024/04/14 10:12:39;;;;;;;5.10;4.45;;;52.30;10.80;;;;;;6768867;26;21092;-61
2024/04/14 10:15:54;;;;;;;6.75;4.55;;;51.80;10.80;;;;;;6756492;26;20251;-61
2024/04/14 10:19:09;;;;;;;4.15;3.85;;;53.70;10.40;;;;;;6751015;26;20631;-61
2024/04/14 10:22:16;;;;;;;4.90;4.50;;;54.80;9.70;;;;;;6753385;26;20748;-61
2024/04/14 10:25:28;;;;;;;4.72;4.43;;;53.60;9.90;;;;;;6754448;26;20247;-61
2024/04/14 10:28:49;;;;;;;4.13;3.83;;;53.70;10.20;;;;;;6764764;26;20238;-61
2024/04/14 10:32:03;;;;;;;4.70;4.00;;;54.30;9.40;;;;;;6752952;26;20274;-61
2024/04/14 10:35:18;;;;;;;4.25;3.72;;;53.70;10.10;;;;;;6766573;26;20344;-62
2024/04/14 10:38:33;;;;;;;5.10;4.50;;;54.10;9.30;;;;;;6784891;26;20250;-61
2024/04/14 10:41:37;;;;;;;4.07;3.78;;;53.00;9.70;;;;;;6803685;26;20305;-61
2024/04/14 10:44:49;;;;;;;3.60;3.28;;;51.70;10.50;;;;;;6812248;26;20383;-62
2024/04/14 10:47:56;;;;;;;3.00;2.80;;;51.30;9.70;;;;;;6810664;26;20794;-62
2024/04/14 10:51:03;;;;;;;3.67;3.38;;;53.00;8.40;;;;;;6791890;26;20632;-61
2024/04/14 10:54:08;;;;;;;4.07;3.67;;;53.80;8.10;;;;;;6777105;26;20246;-62
2024/04/14 10:57:18;;;;;;;3.90;3.42;;;55.50;7.70;;;;;;6811384;26;20315;-62
2024/04/14 11:00:35;;;;;;;3.40;3.20;;;55.50;7.50;;;;;;6799318;26;20242;-61
2024/04/14 11:03:43;;;;;;;2.88;2.67;;;55.80;6.70;;;;;;6810007;26;20230;-62
2024/04/14 11:06:49;;;;;;;4.03;3.72;;;56.40;5.70;;;;;;6797733;26;20738;-61
2024/04/14 11:10:03;;;;;;;3.05;2.50;;;55.60;6.90;;;;;;6812097;26;20222;-61
2024/04/14 11:13:15;;;;;;;2.53;2.33;;;54.50;5.60;;;;;;6812364;26;20280;-62
2024/04/14 11:16:26;;;;;;;2.55;2.45;;;54.80;5.80;;;;;;6813123;26;20246;-61
2024/04/14 11:19:32;;;;;;;3.72;2.83;;;53.10;6.40;;;;;;6812421;26;20580;-62
2024/04/14 11:22:49;;;;;;;2.60;2.42;;;51.80;6.60;;;;;;6812557;26;20236;-62
2024/04/14 11:25:54;;;;;;;2.80;2.60;;;51.00;7.90;;;;;;6799249;26;20700;-60
2024/04/14 11:29:01;;;;;;;3.22;2.92;;;49.60;8.30;;;;;;6812334;26;20230;-61
2024/04/14 11:35:37;;;;;;;3.13;2.83;;;49.40;8.20;;;;;;6814687;26;20346;-60
2024/04/14 11:38:40;;;;;;;2.92;2.72;;;49.40;8.20;;;;;;6815317;26;20242;-63
2024/04/14 11:41:55;;;;;;;2.25;1.80;;;48.50;8.80;;;;;;6814389;26;20234;-63
2024/04/14 11:44:59;;;;;;;2.42;1.88;;;47.90;6.80;;;;;;6812980;26;20243;-61
2024/04/14 11:48:24;;;;;;;2.22;2.03;;;47.40;7.00;;;;;;6812742;26;20231;-62
2024/04/14 11:51:39;;;;;;;2.03;1.92;;;45.70;8.20;;;;;;6806712;26;20227;-62
2024/04/14 11:54:43;;;;;;;2.38;2.17;;;44.90;9.00;;;;;;6798113;26;20347;-61
2024/04/14 11:58:04;;;;;;;2.78;2.15;;;44.20;9.30;;;;;;6811471;26;20230;-61
2024/04/14 12:01:08;;;;;;;4.00;2.70;;;44.00;9.50;;;;;;6804090;26;20238;-62
2024/04/14 12:04:21;;;;;;;3.05;2.20;;;43.30;9.40;;;;;;6816429;26;20667;-61
2024/04/14 12:07:25;;;;;;;2.80;2.60;;;43.10;9.60;;;;;;6813576;26;20345;-63
2024/04/14 12:10:38;;;;;;;2.30;2.10;;;42.50;10.80;;;;;;6811564;26;20670;-62
2024/04/14 12:13:45;;;;;;;2.38;2.17;;;41.70;11.00;;;;;;6812243;26;20230;-62
2024/04/14 12:16:53;;;;;;;2.13;1.70;;;41.00;10.60;;;;;;6813787;26;20294;-61
2024/04/14 12:20:06;;;;;;;2.00;1.60;;;40.70;10.20;;;;;;6814588;26;20227;-61
2024/04/14 12:23:16;;;;;;;3.42;1.73;;;40.20;10.20;;;;;;6805061;26;21014;-63
2024/04/14 12:26:21;;;;;;;1.80;1.70;;;39.50;10.80;;;;;;6811304;26;20293;-62
2024/04/14 12:29:35;;;;;;;4.28;1.77;;;38.80;10.60;;;;;;6807639;26;20234;-63
2024/04/14 12:32:38;;;;;;;2.75;1.77;;;38.00;11.00;;;;;;6802139;26;20327;-62
2024/04/14 12:35:54;;;;;;;2.70;1.98;;;37.20;12.60;;;;;;6799429;26;20243;-62
2024/04/14 12:42:36;;;;;;;1.90;1.80;;;36.50;12.60;;;;;;6800107;26;20230;-63
2024/04/14 12:45:46;;;;;;;2.10;1.90;;;35.70;13.40;;;;;;6791712;26;20242;-63
2024/04/14 12:48:59;;;;;;;2.00;1.70;;;35.90;12.70;;;;;;6804417;26;20238;-63
2024/04/14 12:52:24;;;;;;;3.03;2.25;;;35.80;13.90;;;;;;6778317;26;20300;-63
2024/04/14 12:55:30;;;;;;;3.90;2.67;;;35.40;15.80;;;;;;6796417;26;20236;-64
2024/04/14 12:58:37;;;;;;;2.80;2.60;;;34.90;16.40;;;;;;6782132;26;20751;-63
2024/04/14 13:01:41;;;;;;;2.63;2.13;;;34.70;16.00;;;;;;6794189;26;20281;-63
2024/04/14 13:04:55;;;;;;;2.58;2.22;;;34.60;16.20;;;;;;6807489;26;20746;-63
2024/04/14 13:08:12;;;;;;;2.22;2.13;;;34.40;15.10;;;;;;6799002;26;20297;-63
2024/04/14 13:11:26;;;;;;;3.30;3.00;;;34.00;16.80;;;;;;6796965;26;20235;-64
2024/04/14 13:14:30;;;;;;;2.33;2.13;;;34.00;17.20;;;;;;6801865;26;20242;-64
2024/04/14 13:17:40;;;;;;;2.60;2.45;;;33.70;15.80;;;;;;6805117;26;20257;-64
2024/04/14 13:20:56;;;;;;;2.83;2.47;;;33.40;15.60;;;;;;6788006;26;20337;-64
2024/04/14 13:24:17;;;;;;;2.80;2.55;;;33.20;16.10;;;;;;6800549;26;20312;-63
2024/04/14 13:27:21;;;;;;;3.22;2.80;;;33.00;16.70;;;;;;6800954;26;20284;-63
2024/04/14 13:30:44;;;;;;;3.42;2.40;;;32.90;17.20;;;;;;6798410;26;20242;-63
2024/04/14 13:33:52;;;;;;;3.50;3.20;;;32.60;17.70;;;;;;6795014;26;20336;-63
2024/04/14 13:36:57;;;;;;;2.72;2.53;;;32.30;18.40;;;;;;6817056;26;20231;-63
2024/04/14 13:40:21;;;;;;;4.63;2.58;;;32.00;18.90;;;;;;6809974;26;20234;-63
2024/04/14 13:43:27;;;;;;;2.72;2.30;;;31.80;19.10;;;;;;6779163;26;20238;-63
2024/04/14 13:46:37;;;;;;;3.25;2.50;;;31.70;17.90;;;;;;6793916;26;20323;-60
2024/04/14 13:49:41;;;;;;;2.67;2.13;;;31.40;17.90;;;;;;6799176;26;20247;-61
2024/04/14 13:52:48;;;;;;;2.50;2.30;;;31.20;17.10;;;;;;6797385;26;20496;-60
2024/04/14 13:56:13;;;;;;;2.60;2.40;;;31.10;17.50;;;;;;6798775;26;20626;-61
2024/04/14 13:59:19;;;;;;;2.50;2.20;;;31.10;18.10;;;;;;6786207;26;20373;-61
2024/04/14 14:02:23;;;;;;;2.78;2.47;;;31.00;17.90;;;;;;6788061;26;20239;-60
2024/04/14 14:05:37;;;;;;;4.07;2.28;;;30.90;18.20;;;;;;6788474;26;20319;-61
2024/04/14 14:08:45;;;;;;;2.70;2.50;;;30.90;17.70;;;;;;6783993;26;20277;-60
2024/04/14 14:12:07;;;;;;;3.03;2.78;;;30.90;19.30;;;;;;6795141;26;20314;-61
2024/04/14 14:15:23;;;;;;;4.07;3.40;;;30.90;21.20;;;;;;6796876;26;20293;-61
2024/04/14 14:18:27;;;;;;;4.72;3.20;;;30.80;21.70;;;;;;6783344;26;20696;-61
2024/04/14 14:21:33;;;;;;;6.05;3.33;;;30.60;22.40;;;;;;6805141;26;20238;-61
2024/04/14 14:24:36;;;;;;;6.90;4.05;;;30.00;23.20;;;;;;6807273;26;20676;-61
2024/04/14 14:27:52;;;;;;;3.38;3.08;;;29.70;23.60;;;;;;6815531;26;20796;-62
2024/04/14 14:30:56;;;;;;;3.75;3.40;;;29.50;23.80;;;;;;6798697;26;20242;-62
2024/04/14 14:37:31;;;;;;;5.28;3.17;;;29.90;22.80;;;;;;6807441;26;20786;-62
2024/04/14 14:40:39;;;;;;;4.38;2.97;;;29.90;23.20;;;;;;6793598;26;20273;-62
2024/04/14 14:44:09;;;;;;;3.38;3.08;;;30.00;23.60;;;;;;6798539;26;20327;-60
2024/04/14 14:47:17;;;;;;;3.53;3.22;;;29.90;24.00;;;;;;6792707;26;20273;-61
2024/04/14 14:50:21;;;;;;;5.22;3.50;;;30.00;23.70;;;;;;6792448;26;20531;-61
2024/04/14 14:53:37;;;;;;;3.65;3.35;;;30.00;24.10;;;;;;6805765;26;20226;-61
2024/04/14 14:56:51;;;;;;;3.95;3.55;;;29.80;25.00;;;;;;6795743;26;20692;-61
2024/04/14 15:00:21;;;;;;;3.90;3.60;;;29.80;25.50;;;;;;6795929;26;20260;-61
2024/04/14 15:03:26;;;;;;;4.75;3.50;;;29.70;25.20;;;;;;6814203;26;20277;-61
2024/04/14 15:06:34;;;;;;;5.75;3.90;;;29.70;25.00;;;;;;6790942;26;20238;-60
2024/04/14 15:09:38;;;;;;;3.33;3.13;;;29.60;25.50;;;;;;6798947;26;20330;-61
2024/04/14 15:12:53;;;;;;;3.33;3.03;;;29.50;25.80;;;;;;6777247;26;20247;-61
2024/04/14 15:16:16;;;;;;;5.05;4.22;;;29.50;26.20;;;;;;6797348;26;20748;-60
2024/04/14 15:19:32;;;;;;;3.95;3.67;;;29.50;25.80;;;;;;6781709;26;20380;-61
2024/04/14 15:22:35;;;;;;;5.38;4.15;;;29.50;26.20;;;;;;6786927;26;20277;-62
2024/04/14 15:25:57;;;;;;;4.45;4.03;;;29.40;26.30;;;;;;6762816;26;20346;-62
2024/04/14 15:29:00;;;;;;;4.25;3.75;;;29.40;27.10;;;;;;6783476;26;20236;-61
2024/04/14 15:32:24;;;;;;;4.50;4.13;;;29.40;27.60;;;;;;6798466;26;20535;-62
2024/04/14 15:35:28;;;;;;;4.57;4.18;;;29.40;27.10;;;;;;6781967;26;20274;-62
2024/04/14 15:38:38;;;;;;;4.20;3.78;;;29.30;27.40;;;;;;6803359;26;20980;-62
2024/04/14 15:41:43;;;;;;;5.55;4.10;;;29.10;27.70;;;;;;6759011;26;20788;-62
2024/04/14 15:44:56;;;;;;;4.00;3.60;;;29.10;27.80;;;;;;6790781;26;20329;-62
2024/04/14 15:48:14;;;;;;;5.13;4.50;;;29.00;28.00;;;;;;6793298;26;20318;-62
2024/04/14 15:51:28;;;;;;;5.00;4.50;;;29.00;28.50;;;;;;6769145;26;20307;-62
2024/04/14 15:54:33;;;;;;;4.45;4.05;;;29.00;28.80;;;;;;6797728;26;20231;-61
2024/04/14 15:57:45;;;;;;;5.70;4.82;;;28.90;29.30;;;;;;6721596;26;20230;-63
2024/04/14 16:00:57;;;;;;;5.30;4.47;;;28.90;29.70;;;;;;6793591;26;20266;-61
2024/04/14 16:04:22;;;;;;;4.80;4.30;;;28.70;30.10;;;;;;6790551;26;20717;-63
2024/04/14 16:07:27;;;;;;;5.13;4.72;;;28.50;30.50;;;;;;6781206;26;20295;-62
2024/04/14 16:10:34;;;;;;;4.60;4.07;;;28.40;30.70;;;;;;6792378;26;20297;-62
2024/04/14 16:13:38;;;;;;;10.10;5.10;;;28.40;30.90;;;;;;6784318;26;20250;-62
2024/04/14 16:16:49;;;;;;;4.70;4.30;;;28.20;30.90;;;;;;6791341;26;20230;-61
2024/04/14 16:20:08;;;;;;;5.18;4.68;;;28.10;31.10;;;;;;6806109;26;20241;-61
2024/04/14 16:23:24;;;;;;;4.57;4.27;;;28.10;31.30;;;;;;6799641;26;20307;-61
2024/04/14 16:26:28;;;;;;;5.30;4.63;;;28.10;31.40;;;;;;6802411;26;20242;-62
2024/04/14 16:29:43;;;;;;;6.60;4.70;;;28.00;31.60;;;;;;6799005;26;20281;-62
2024/04/14 16:32:48;;;;;;;5.00;4.60;;;27.90;32.00;;;;;;6801981;26;20239;-61
2024/04/14 16:35:57;;;;;;;7.97;5.30;;;27.90;32.60;;;;;;6780860;26;20235;-63
2024/04/14 16:39:01;;;;;;;5.83;5.27;;;27.80;33.10;;;;;;6796096;26;20716;-62
2024/04/14 16:42:12;;;;;;;5.90;5.40;;;27.70;33.60;;;;;;6790671;26;20231;-62
2024/04/14 16:45:17;;;;;;;5.97;5.50;;;27.60;34.00;;;;;;6780410;26;20285;-62
2024/04/14 16:48:32;;;;;;;5.50;4.80;;;27.60;34.50;;;;;;6793834;26;20808;-62